createdAt,value
2018-03-16T00:00:37.966Z,4.00
2018-03-16T00:01:37.974Z,0.00
2018-03-16T00:02:37.979Z,0.00
2018-03-16T00:03:37.979Z,4.00
2018-03-16T00:04:37.974Z,4.00
2018-03-16T00:05:37.983Z,4.00
2018-03-16T00:06:37.985Z,0.00
2018-03-16T00:07:37.996Z,0.00
2018-03-16T00:08:37.994Z,0.00
2018-03-16T00:09:37.995Z,0.00
2018-03-16T00:10:37.994Z,0.00
2018-03-16T00:11:37.999Z,0.00
2018-03-16T00:12:37.999Z,0.00
2018-03-16T00:13:38.001Z,0.00
2018-03-16T00:14:38.018Z,0.00
2018-03-16T00:15:38.018Z,0.00
2018-03-16T00:16:38.018Z,0.00
2018-03-16T00:17:38.017Z,4.00
2018-03-16T00:18:38.010Z,4.00
2018-03-16T00:19:38.014Z,0.00
2018-03-16T00:20:38.018Z,0.00
2018-03-16T00:21:38.020Z,0.00
2018-03-16T00:22:38.026Z,0.00
2018-03-16T00:23:38.023Z,0.00
2018-03-16T00:24:38.025Z,0.00
2018-03-16T00:25:38.595Z,0.00
2018-03-16T00:26:38.022Z,0.00
2018-03-16T00:27:38.033Z,0.00
2018-03-16T00:28:38.033Z,0.00
2018-03-16T00:29:38.034Z,0.00
2018-03-16T00:30:38.039Z,0.00
2018-03-16T00:31:38.050Z,0.00
2018-03-16T00:32:38.049Z,0.00
2018-03-16T00:33:38.054Z,0.00
2018-03-16T00:34:38.042Z,0.00
2018-03-16T00:35:38.059Z,0.00
2018-03-16T00:36:38.054Z,0.00
2018-03-16T00:37:38.057Z,0.00
2018-03-16T00:38:38.064Z,0.00
2018-03-16T00:39:38.067Z,0.00
2018-03-16T00:40:38.068Z,0.00
2018-03-16T00:41:38.096Z,0.00
2018-03-16T00:42:38.065Z,0.00
2018-03-16T00:43:38.063Z,0.00
2018-03-16T00:44:38.072Z,0.00
2018-03-16T00:45:38.076Z,0.00
2018-03-16T00:46:38.067Z,0.00
2018-03-16T00:47:38.078Z,0.00
2018-03-16T00:48:38.074Z,0.00
2018-03-16T00:49:38.082Z,0.00
2018-03-16T00:50:38.076Z,0.00
2018-03-16T00:51:38.082Z,0.00
2018-03-16T00:52:38.082Z,0.00
2018-03-16T00:53:38.092Z,0.00
2018-03-16T00:54:38.086Z,0.00
2018-03-16T00:55:38.090Z,0.00
2018-03-16T00:56:38.091Z,0.00
2018-03-16T00:57:38.101Z,0.00
2018-03-16T00:58:38.102Z,0.00
2018-03-16T00:59:38.128Z,0.00
2018-03-16T01:00:38.099Z,0.00
2018-03-16T01:01:38.117Z,0.00
2018-03-16T01:02:38.122Z,0.00
2018-03-16T01:03:38.138Z,0.00
2018-03-16T01:04:38.107Z,0.00
2018-03-16T01:05:38.106Z,0.00
2018-03-16T01:06:38.110Z,0.00
2018-03-16T01:07:38.111Z,0.00
2018-03-16T01:08:38.115Z,0.00
2018-03-16T01:09:38.112Z,0.00
2018-03-16T01:10:38.114Z,0.00
2018-03-16T01:11:38.120Z,0.00
2018-03-16T01:12:38.217Z,0.00
2018-03-16T01:13:38.116Z,0.00
2018-03-16T01:14:38.126Z,0.00
2018-03-16T01:15:38.130Z,0.00
2018-03-16T01:16:38.137Z,0.00
2018-03-16T01:17:38.143Z,0.00
2018-03-16T01:18:38.139Z,0.00
2018-03-16T01:19:38.145Z,0.00
2018-03-16T01:20:38.157Z,0.00
2018-03-16T01:21:38.152Z,0.00
2018-03-16T01:22:38.137Z,0.00
2018-03-16T01:23:38.172Z,0.00
2018-03-16T01:24:38.151Z,0.00
2018-03-16T01:25:38.155Z,0.00
2018-03-16T01:26:38.153Z,0.00
2018-03-16T01:27:38.146Z,0.00
2018-03-16T01:28:38.151Z,0.00
2018-03-16T01:29:38.161Z,0.00
2018-03-16T01:30:38.161Z,0.00
2018-03-16T01:31:38.166Z,0.00
2018-03-16T01:32:38.160Z,0.00
2018-03-16T01:33:38.161Z,0.00
2018-03-16T01:34:38.167Z,0.00
2018-03-16T01:35:38.167Z,0.00
2018-03-16T01:36:38.176Z,0.00
2018-03-16T01:37:38.176Z,0.00
2018-03-16T01:38:38.185Z,0.00
2018-03-16T01:39:38.183Z,0.00
2018-03-16T01:40:38.183Z,0.00
2018-03-16T01:41:38.177Z,0.00
2018-03-16T01:42:38.193Z,0.00
2018-03-16T01:43:38.200Z,0.00
2018-03-16T01:44:38.196Z,0.00
2018-03-16T01:45:38.205Z,0.00
2018-03-16T01:46:38.199Z,0.00
2018-03-16T01:47:38.198Z,0.00
2018-03-16T01:48:38.202Z,0.00
2018-03-16T01:49:38.229Z,0.00
2018-03-16T01:50:38.195Z,0.00
2018-03-16T01:51:38.199Z,0.00
2018-03-16T01:52:38.208Z,0.00
2018-03-16T01:53:38.201Z,0.00
2018-03-16T01:54:38.201Z,0.00
2018-03-16T01:55:38.217Z,0.00
2018-03-16T01:56:38.212Z,0.00
2018-03-16T01:57:38.212Z,4.00
2018-03-16T01:58:39.099Z,0.00
2018-03-16T01:59:38.220Z,4.00
2018-03-16T02:00:38.226Z,4.00
2018-03-16T02:01:38.218Z,4.00
2018-03-16T02:02:38.241Z,4.00
2018-03-16T02:03:38.240Z,4.00
2018-03-16T02:04:38.257Z,0.00
2018-03-16T02:05:38.236Z,0.00
2018-03-16T02:06:38.243Z,4.00
2018-03-16T02:07:38.234Z,4.00
2018-03-16T02:08:38.237Z,4.00
2018-03-16T02:09:38.253Z,4.00
2018-03-16T02:10:38.250Z,4.00
2018-03-16T02:11:38.245Z,4.00
2018-03-16T02:12:38.251Z,4.00
2018-03-16T02:13:38.247Z,0.00
2018-03-16T02:14:38.252Z,0.00
2018-03-16T02:15:38.257Z,0.00
2018-03-16T02:16:38.261Z,0.00
2018-03-16T02:17:38.255Z,0.00
2018-03-16T02:18:38.255Z,0.00
2018-03-16T02:19:38.267Z,0.00
2018-03-16T02:20:38.269Z,0.00
2018-03-16T02:21:38.265Z,0.00
2018-03-16T02:22:38.271Z,4.00
2018-03-16T02:23:38.300Z,4.00
2018-03-16T02:24:38.282Z,4.00
2018-03-16T02:25:38.281Z,4.00
2018-03-16T02:26:38.286Z,4.00
2018-03-16T02:27:38.303Z,4.00
2018-03-16T02:28:38.291Z,4.00
2018-03-16T02:29:38.285Z,4.00
2018-03-16T02:30:40.465Z,4.00
2018-03-16T02:31:39.963Z,4.00
2018-03-16T02:32:38.294Z,4.00
2018-03-16T02:33:38.299Z,4.00
2018-03-16T02:34:38.298Z,4.00
2018-03-16T02:35:38.310Z,4.00
2018-03-16T02:36:38.291Z,4.00
2018-03-16T02:37:38.312Z,4.00
2018-03-16T02:38:38.305Z,4.00
2018-03-16T02:39:38.313Z,4.00
2018-03-16T02:40:38.308Z,4.00
2018-03-16T02:41:38.308Z,4.00
2018-03-16T02:42:38.311Z,4.00
2018-03-16T02:43:38.319Z,4.00
2018-03-16T02:44:38.324Z,4.00
2018-03-16T02:45:38.325Z,0.00
2018-03-16T02:46:38.327Z,0.00
2018-03-16T02:47:38.334Z,0.00
2018-03-16T02:48:38.332Z,0.00
2018-03-16T02:49:38.328Z,0.00
2018-03-16T02:50:38.392Z,0.00
2018-03-16T02:51:38.324Z,0.00
2018-03-16T02:52:38.338Z,0.00
2018-03-16T02:53:38.335Z,4.00
2018-03-16T02:54:38.338Z,4.00
2018-03-16T02:55:38.343Z,4.00
2018-03-16T02:56:38.361Z,0.00
2018-03-16T02:57:38.357Z,4.00
2018-03-16T02:58:38.344Z,0.00
2018-03-16T02:59:38.359Z,0.00
2018-03-16T03:00:38.348Z,0.00
2018-03-16T03:01:38.348Z,4.00
2018-03-16T03:02:38.352Z,0.00
2018-03-16T03:03:38.357Z,4.00
2018-03-16T03:04:38.364Z,4.00
2018-03-16T03:05:38.398Z,4.00
2018-03-16T03:06:38.363Z,4.00
2018-03-16T03:07:38.374Z,4.00
2018-03-16T03:08:38.370Z,4.00
2018-03-16T03:09:38.376Z,4.00
2018-03-16T03:10:38.365Z,4.00
2018-03-16T03:11:38.379Z,4.00
2018-03-16T03:12:38.382Z,4.00
2018-03-16T03:13:38.377Z,4.00
2018-03-16T03:14:38.372Z,4.00
2018-03-16T03:15:38.380Z,4.00
2018-03-16T03:16:38.385Z,4.00
2018-03-16T03:17:38.379Z,4.00
2018-03-16T03:18:38.382Z,4.00
2018-03-16T03:19:38.394Z,4.00
2018-03-16T03:20:38.393Z,4.00
2018-03-16T03:21:38.395Z,4.00
2018-03-16T03:22:38.397Z,4.00
2018-03-16T03:23:38.397Z,4.00
2018-03-16T03:24:38.406Z,4.00
2018-03-16T03:25:38.399Z,4.00
2018-03-16T03:26:38.417Z,4.00
2018-03-16T03:27:38.415Z,4.00
2018-03-16T03:28:38.469Z,4.00
2018-03-16T03:29:38.406Z,4.00
2018-03-16T03:30:38.405Z,4.00
2018-03-16T03:31:38.415Z,4.00
2018-03-16T03:32:38.414Z,4.00
2018-03-16T03:33:38.415Z,4.00
2018-03-16T03:34:38.424Z,4.00
2018-03-16T03:35:38.422Z,4.00
2018-03-16T03:36:38.419Z,4.00
2018-03-16T03:37:38.426Z,4.00
2018-03-16T03:38:38.422Z,4.00
2018-03-16T03:39:38.430Z,4.00
2018-03-16T03:40:38.434Z,4.00
2018-03-16T03:41:38.434Z,0.00
2018-03-16T03:42:38.438Z,0.00
2018-03-16T03:43:38.441Z,0.00
2018-03-16T03:44:38.453Z,0.00
2018-03-16T03:45:38.450Z,0.00
2018-03-16T03:46:38.452Z,0.00
2018-03-16T03:47:38.463Z,0.00
2018-03-16T03:48:38.453Z,0.00
2018-03-16T03:49:38.453Z,0.00
2018-03-16T03:50:38.453Z,0.00
2018-03-16T03:51:38.463Z,0.00
2018-03-16T03:52:38.465Z,0.00
2018-03-16T03:53:38.462Z,0.00
2018-03-16T03:54:38.462Z,0.00
2018-03-16T03:55:38.465Z,0.00
2018-03-16T03:56:38.468Z,0.00
2018-03-16T03:57:38.467Z,0.00
2018-03-16T03:58:38.498Z,0.00
2018-03-16T03:59:38.485Z,0.00
2018-03-16T04:00:38.476Z,0.00
2018-03-16T04:01:38.480Z,0.00
2018-03-16T04:02:38.481Z,4.00
2018-03-16T04:03:38.485Z,0.00
2018-03-16T04:04:38.492Z,4.00
2018-03-16T04:05:38.484Z,0.00
2018-03-16T04:06:38.504Z,0.00
2018-03-16T04:07:38.496Z,0.00
2018-03-16T04:08:38.509Z,0.00
2018-03-16T04:09:38.515Z,0.00
2018-03-16T04:10:38.497Z,0.00
2018-03-16T04:11:38.490Z,0.00
2018-03-16T04:12:38.501Z,0.00
2018-03-16T04:13:38.490Z,0.00
2018-03-16T04:14:38.505Z,0.00
2018-03-16T04:15:38.499Z,0.00
2018-03-16T04:16:38.509Z,0.00
2018-03-16T04:17:38.499Z,0.00
2018-03-16T04:18:38.501Z,0.00
2018-03-16T04:19:39.132Z,0.00
2018-03-16T04:20:38.510Z,0.00
2018-03-16T04:21:38.514Z,0.00
2018-03-16T04:22:38.512Z,0.00
2018-03-16T04:23:38.536Z,0.00
2018-03-16T04:24:38.518Z,0.00
2018-03-16T04:25:38.521Z,0.00
2018-03-16T04:26:38.535Z,0.00
2018-03-16T04:27:38.534Z,0.00
2018-03-16T04:28:38.536Z,4.00
2018-03-16T04:29:38.544Z,0.00
2018-03-16T04:30:38.525Z,0.00
2018-03-16T04:31:38.564Z,0.00
2018-03-16T04:32:38.555Z,0.00
2018-03-16T04:33:38.537Z,0.00
2018-03-16T04:34:38.539Z,0.00
2018-03-16T04:35:38.536Z,0.00
2018-03-16T04:36:38.538Z,0.00
2018-03-16T04:37:38.542Z,0.00
2018-03-16T04:38:38.537Z,4.00
2018-03-16T04:39:38.549Z,0.00
2018-03-16T04:40:38.558Z,0.00
2018-03-16T04:41:38.554Z,0.00
2018-03-16T04:42:38.557Z,0.00
2018-03-16T04:43:38.551Z,0.00
2018-03-16T04:44:38.556Z,4.00
2018-03-16T04:45:38.560Z,0.00
2018-03-16T04:46:38.563Z,0.00
2018-03-16T04:47:38.567Z,0.00
2018-03-16T04:48:38.565Z,0.00
2018-03-16T04:49:38.592Z,4.00
2018-03-16T04:50:38.586Z,0.00
2018-03-16T04:51:38.579Z,0.00
2018-03-16T04:52:38.578Z,0.00
2018-03-16T04:53:38.565Z,0.00
2018-03-16T04:54:38.576Z,0.00
2018-03-16T04:55:38.575Z,4.00
2018-03-16T04:56:38.579Z,0.00
2018-03-16T04:57:38.573Z,0.00
2018-03-16T04:58:38.584Z,0.00
2018-03-16T04:59:38.587Z,0.00
2018-03-16T05:00:38.580Z,0.00
2018-03-16T05:01:38.598Z,0.00
2018-03-16T05:02:38.585Z,4.00
2018-03-16T05:03:38.590Z,0.00
2018-03-16T05:04:38.584Z,4.00
2018-03-16T05:05:38.592Z,0.00
2018-03-16T05:06:38.594Z,0.00
2018-03-16T05:07:38.604Z,0.00
2018-03-16T05:08:38.599Z,0.00
2018-03-16T05:09:38.609Z,0.00
2018-03-16T05:10:38.629Z,4.00
2018-03-16T05:11:38.612Z,4.00
2018-03-16T05:12:38.634Z,4.00
2018-03-16T05:13:38.611Z,4.00
2018-03-16T05:14:38.602Z,0.00
2018-03-16T05:15:38.657Z,4.00
2018-03-16T05:16:39.148Z,4.00
2018-03-16T05:17:38.610Z,4.00
2018-03-16T05:18:38.610Z,4.00
2018-03-16T05:19:38.612Z,4.00
2018-03-16T05:20:38.615Z,4.00
2018-03-16T05:21:38.618Z,4.00
2018-03-16T05:22:38.614Z,4.00
2018-03-16T05:23:38.623Z,4.00
2018-03-16T05:24:38.620Z,0.00
2018-03-16T05:25:38.622Z,4.00
2018-03-16T05:26:38.620Z,4.00
2018-03-16T05:27:38.624Z,4.00
2018-03-16T05:28:38.631Z,4.00
2018-03-16T05:29:38.631Z,8.00
2018-03-16T05:30:38.646Z,4.00
2018-03-16T05:31:38.640Z,8.00
2018-03-16T05:32:38.641Z,8.00
2018-03-16T05:33:38.656Z,8.00
2018-03-16T05:34:38.652Z,8.00
2018-03-16T05:35:38.645Z,8.00
2018-03-16T05:36:38.643Z,8.00
2018-03-16T05:37:38.650Z,8.00
2018-03-16T05:38:38.649Z,12.00
2018-03-16T05:39:38.700Z,8.00
2018-03-16T05:40:38.709Z,12.00
2018-03-16T05:41:38.697Z,12.00
2018-03-16T05:42:38.658Z,12.00
2018-03-16T05:43:38.657Z,16.00
2018-03-16T05:44:38.738Z,16.00
2018-03-16T05:45:38.671Z,16.00
2018-03-16T05:46:38.761Z,16.00
2018-03-16T05:47:38.762Z,20.00
2018-03-16T05:48:38.759Z,20.00
2018-03-16T05:49:38.674Z,24.00
2018-03-16T05:50:38.733Z,24.00
2018-03-16T05:51:38.676Z,28.00
2018-03-16T05:52:38.689Z,28.00
2018-03-16T05:53:38.669Z,32.00
2018-03-16T05:54:38.688Z,40.00
2018-03-16T05:55:38.684Z,44.00
2018-03-16T05:56:38.699Z,48.00
2018-03-16T05:57:38.856Z,44.00
2018-03-16T05:58:38.689Z,48.00
2018-03-16T05:59:38.696Z,44.00
2018-03-16T06:00:38.751Z,40.00
2018-03-16T06:01:38.676Z,48.00
2018-03-16T06:02:38.680Z,44.00
2018-03-16T06:03:38.690Z,56.00
2018-03-16T06:04:38.723Z,68.00
2018-03-16T06:05:38.687Z,64.00
2018-03-16T06:06:38.697Z,72.00
2018-03-16T06:07:39.049Z,80.00
2018-03-16T06:08:38.708Z,88.00
2018-03-16T06:09:38.708Z,88.00
2018-03-16T06:10:38.698Z,88.00
2018-03-16T06:11:38.717Z,96.00
2018-03-16T06:12:38.707Z,96.00
2018-03-16T06:13:38.716Z,92.00
2018-03-16T06:14:38.716Z,100.00
2018-03-16T06:15:38.715Z,104.00
2018-03-16T06:16:38.713Z,104.00
2018-03-16T06:17:38.722Z,120.00
2018-03-16T06:18:38.725Z,124.00
2018-03-16T06:19:38.757Z,128.00
2018-03-16T06:20:38.716Z,132.00
2018-03-16T06:21:38.735Z,136.00
2018-03-16T06:22:38.733Z,132.00
2018-03-16T06:23:38.717Z,112.00
2018-03-16T06:24:38.717Z,128.00
2018-03-16T06:25:38.721Z,136.00
2018-03-16T06:26:38.724Z,156.00
2018-03-16T06:27:38.730Z,152.00
2018-03-16T06:28:38.725Z,144.00
2018-03-16T06:29:38.732Z,140.00
2018-03-16T06:30:38.735Z,144.00
2018-03-16T06:31:38.741Z,136.00
2018-03-16T06:32:38.764Z,144.00
2018-03-16T06:33:38.769Z,172.00
2018-03-16T06:34:38.746Z,180.00
2018-03-16T06:35:38.738Z,172.00
2018-03-16T06:36:38.756Z,164.00
2018-03-16T06:37:38.756Z,168.00
2018-03-16T06:38:38.747Z,184.00
2018-03-16T06:39:38.767Z,172.00
2018-03-16T06:40:38.780Z,188.00
2018-03-16T06:41:38.754Z,192.00
2018-03-16T06:42:38.752Z,196.00
2018-03-16T06:43:38.745Z,208.00
2018-03-16T06:44:38.840Z,236.00
2018-03-16T06:45:38.765Z,232.00
2018-03-16T06:46:38.755Z,228.00
2018-03-16T06:47:38.760Z,240.00
2018-03-16T06:48:38.760Z,252.00
2018-03-16T06:49:38.766Z,252.00
2018-03-16T06:50:38.761Z,256.00
2018-03-16T06:51:38.771Z,264.00
2018-03-16T06:52:38.769Z,264.00
2018-03-16T06:53:38.786Z,288.00
2018-03-16T06:54:38.816Z,288.00
2018-03-16T06:55:38.793Z,320.00
2018-03-16T06:56:38.804Z,324.00
2018-03-16T06:57:38.781Z,332.00
2018-03-16T06:58:38.790Z,324.00
2018-03-16T06:59:38.805Z,300.00
2018-03-16T07:00:38.780Z,296.00
2018-03-16T07:01:38.778Z,312.00
2018-03-16T07:02:38.779Z,308.00
2018-03-16T07:03:38.801Z,348.00
2018-03-16T07:04:38.787Z,344.00
2018-03-16T07:05:38.790Z,332.00
2018-03-16T07:06:38.788Z,360.00
2018-03-16T07:07:38.807Z,380.00
2018-03-16T07:08:38.800Z,372.00
2018-03-16T07:09:38.811Z,352.00
2018-03-16T07:10:38.804Z,344.00
2018-03-16T07:11:38.807Z,340.00
2018-03-16T07:12:38.835Z,332.00
2018-03-16T07:13:38.825Z,376.00
2018-03-16T07:14:38.843Z,372.00
2018-03-16T07:15:38.844Z,352.00
2018-03-16T07:16:38.828Z,396.00
2018-03-16T07:17:38.901Z,432.00
2018-03-16T07:18:38.827Z,412.00
2018-03-16T07:19:38.831Z,424.00
2018-03-16T07:20:38.842Z,408.00
2018-03-16T07:21:38.815Z,440.00
2018-03-16T07:22:38.819Z,460.00
2018-03-16T07:23:38.891Z,444.00
2018-03-16T07:24:38.835Z,444.00
2018-03-16T07:25:38.828Z,448.00
2018-03-16T07:26:38.822Z,468.00
2018-03-16T07:27:38.825Z,496.00
2018-03-16T07:28:38.826Z,476.00
2018-03-16T07:29:38.874Z,512.00
2018-03-16T07:30:38.850Z,524.00
2018-03-16T07:31:38.864Z,476.00
2018-03-16T07:32:38.853Z,488.00
2018-03-16T07:33:38.839Z,512.00
2018-03-16T07:34:38.837Z,544.00
2018-03-16T07:35:38.873Z,564.00
2018-03-16T07:36:38.855Z,572.00
2018-03-16T07:37:38.843Z,588.00
2018-03-16T07:38:38.915Z,584.00
2018-03-16T07:39:38.862Z,640.00
2018-03-16T07:40:38.857Z,668.00
2018-03-16T07:41:38.875Z,724.00
2018-03-16T07:42:38.849Z,756.00
2018-03-16T07:43:38.856Z,772.00
2018-03-16T07:44:38.855Z,756.00
2018-03-16T07:45:38.855Z,760.00
2018-03-16T07:46:38.864Z,764.00
2018-03-16T07:47:38.890Z,820.00
2018-03-16T07:48:38.880Z,836.00
2018-03-16T07:49:38.880Z,812.00
2018-03-16T07:50:38.875Z,796.00
2018-03-16T07:51:38.875Z,812.00
2018-03-16T07:52:38.872Z,768.00
2018-03-16T07:53:38.896Z,852.00
2018-03-16T07:54:38.891Z,796.00
2018-03-16T07:55:38.880Z,704.00
2018-03-16T07:56:38.888Z,708.00
2018-03-16T07:57:38.888Z,624.00
2018-03-16T07:58:38.879Z,564.00
2018-03-16T07:59:38.881Z,672.00
2018-03-16T08:00:38.890Z,600.00
2018-03-16T08:01:38.885Z,580.00
2018-03-16T08:02:38.894Z,628.00
2018-03-16T08:03:38.922Z,644.00
2018-03-16T08:04:38.892Z,592.00
2018-03-16T08:05:38.893Z,620.00
2018-03-16T08:06:39.059Z,656.00
2018-03-16T08:07:39.029Z,676.00
2018-03-16T08:08:38.910Z,736.00
2018-03-16T08:09:38.896Z,704.00
2018-03-16T08:10:38.906Z,696.00
2018-03-16T08:11:38.906Z,740.00
2018-03-16T08:12:38.911Z,772.00
2018-03-16T08:13:38.921Z,744.00
2018-03-16T08:14:38.917Z,772.00
2018-03-16T08:15:38.919Z,812.00
2018-03-16T08:16:38.923Z,812.00
2018-03-16T08:17:38.916Z,804.00
2018-03-16T08:18:38.925Z,840.00
2018-03-16T08:19:38.914Z,796.00
2018-03-16T08:20:38.919Z,832.00
2018-03-16T08:21:38.932Z,836.00
2018-03-16T08:22:38.933Z,848.00
2018-03-16T08:23:38.925Z,860.00
2018-03-16T08:24:38.936Z,836.00
2018-03-16T08:25:38.942Z,860.00
2018-03-16T08:26:38.944Z,772.00
2018-03-16T08:27:38.940Z,844.00
2018-03-16T08:28:38.942Z,804.00
2018-03-16T08:29:38.949Z,768.00
2018-03-16T08:30:38.948Z,812.00
2018-03-16T08:31:38.959Z,784.00
2018-03-16T08:32:38.968Z,784.00
2018-03-16T08:33:38.945Z,772.00
2018-03-16T08:34:38.953Z,824.00
2018-03-16T08:35:38.948Z,744.00
2018-03-16T08:36:38.960Z,828.00
2018-03-16T08:37:38.952Z,820.00
2018-03-16T08:38:39.022Z,764.00
2018-03-16T08:39:38.978Z,760.00
2018-03-16T08:40:38.964Z,812.00
2018-03-16T08:41:38.958Z,776.00
2018-03-16T08:42:38.967Z,816.00
2018-03-16T08:43:38.981Z,836.00
2018-03-16T08:44:38.985Z,852.00
2018-03-16T08:45:39.009Z,852.00
2018-03-16T08:46:38.978Z,784.00
2018-03-16T08:47:39.058Z,804.00
2018-03-16T08:48:39.072Z,864.00
2018-03-16T08:49:38.988Z,896.00
2018-03-16T08:50:38.983Z,888.00
2018-03-16T08:51:38.990Z,872.00
2018-03-16T08:52:38.995Z,836.00
2018-03-16T08:53:38.979Z,872.00
2018-03-16T08:54:39.003Z,860.00
2018-03-16T08:55:38.999Z,892.00
2018-03-16T08:56:38.999Z,976.00
2018-03-16T08:57:39.000Z,1036.00
2018-03-16T08:58:38.998Z,940.00
2018-03-16T08:59:39.007Z,1008.00
2018-03-16T09:00:39.703Z,932.00
2018-03-16T09:01:39.005Z,940.00
2018-03-16T09:02:39.003Z,908.00
2018-03-16T09:03:39.007Z,880.00
2018-03-16T09:04:39.027Z,1008.00
2018-03-16T09:05:39.004Z,1004.00
2018-03-16T09:06:39.014Z,984.00
2018-03-16T09:07:39.017Z,924.00
2018-03-16T09:08:39.150Z,952.00
2018-03-16T09:09:39.097Z,944.00
2018-03-16T09:10:39.035Z,884.00
2018-03-16T09:11:39.052Z,844.00
2018-03-16T09:12:39.084Z,888.00
2018-03-16T09:13:39.049Z,880.00
2018-03-16T09:14:39.060Z,872.00
2018-03-16T09:15:39.070Z,888.00
2018-03-16T09:16:39.035Z,988.00
2018-03-16T09:17:39.039Z,944.00
2018-03-16T09:18:39.166Z,916.00
2018-03-16T09:19:39.050Z,864.00
2018-03-16T09:20:39.046Z,920.00
2018-03-16T09:21:39.037Z,944.00
2018-03-16T09:22:39.047Z,968.00
2018-03-16T09:23:39.132Z,988.00
2018-03-16T09:24:39.059Z,1044.00
2018-03-16T09:25:39.062Z,1012.00
2018-03-16T09:26:39.057Z,1020.00
2018-03-16T09:27:39.063Z,1056.00
2018-03-16T09:28:39.070Z,1000.00
2018-03-16T09:29:39.069Z,996.00
2018-03-16T09:30:39.063Z,992.00
2018-03-16T09:31:39.091Z,868.00
2018-03-16T09:32:39.083Z,916.00
2018-03-16T09:33:39.071Z,964.00
2018-03-16T09:34:39.066Z,1012.00
2018-03-16T09:35:39.088Z,1108.00
2018-03-16T09:36:39.100Z,1100.00
2018-03-16T09:37:39.078Z,988.00
2018-03-16T09:38:39.085Z,1048.00
2018-03-16T09:39:39.096Z,1104.00
2018-03-16T09:40:39.080Z,1212.00
2018-03-16T09:41:39.088Z,1152.00
2018-03-16T09:42:39.084Z,1160.00
2018-03-16T09:43:39.099Z,1256.00
2018-03-16T09:44:39.089Z,1100.00
2018-03-16T09:45:39.094Z,1112.00
2018-03-16T09:46:39.100Z,1160.00
2018-03-16T09:47:39.095Z,992.00
2018-03-16T09:48:39.099Z,1084.00
2018-03-16T09:49:39.094Z,1060.00
2018-03-16T09:50:39.144Z,1152.00
2018-03-16T09:51:39.115Z,1120.00
2018-03-16T09:52:39.137Z,1104.00
2018-03-16T09:53:39.120Z,1144.00
2018-03-16T09:54:39.126Z,1276.00
2018-03-16T09:55:39.148Z,1284.00
2018-03-16T09:56:39.131Z,1304.00
2018-03-16T09:57:39.161Z,1148.00
2018-03-16T09:58:39.120Z,1268.00
2018-03-16T09:59:39.117Z,1412.00
2018-03-16T10:00:39.130Z,1476.00
2018-03-16T10:01:39.161Z,1452.00
2018-03-16T10:02:39.124Z,1556.00
2018-03-16T10:03:39.126Z,1596.00
2018-03-16T10:04:39.129Z,1552.00
2018-03-16T10:05:39.128Z,1612.00
2018-03-16T10:06:39.135Z,1604.00
2018-03-16T10:07:39.134Z,1656.00
2018-03-16T10:08:39.135Z,1624.00
2018-03-16T10:09:39.138Z,1580.00
2018-03-16T10:10:39.139Z,1656.00
2018-03-16T10:11:39.149Z,1616.00
2018-03-16T10:12:39.162Z,1748.00
2018-03-16T10:13:39.147Z,1664.00
2018-03-16T10:14:39.153Z,1684.00
2018-03-16T10:15:39.174Z,1764.00
2018-03-16T10:16:39.182Z,1792.00
2018-03-16T10:17:39.160Z,1876.00
2018-03-16T10:18:39.172Z,1788.00
2018-03-16T10:19:39.199Z,1776.00
2018-03-16T10:20:39.160Z,1752.00
2018-03-16T10:21:39.152Z,1780.00
2018-03-16T10:22:39.167Z,1828.00
2018-03-16T10:23:39.161Z,1816.00
2018-03-16T10:24:39.167Z,1820.00
2018-03-16T10:25:39.162Z,1920.00
2018-03-16T10:26:39.267Z,1956.00
2018-03-16T10:27:39.171Z,1812.00
2018-03-16T10:28:39.171Z,1932.00
2018-03-16T10:29:39.176Z,1940.00
2018-03-16T10:30:39.183Z,2060.00
2018-03-16T10:31:39.200Z,1992.00
2018-03-16T10:32:39.188Z,2160.00
2018-03-16T10:33:39.195Z,2140.00
2018-03-16T10:34:39.189Z,2284.00
2018-03-16T10:35:39.207Z,2068.00
2018-03-16T10:36:39.212Z,2036.00
2018-03-16T10:37:39.201Z,2036.00
2018-03-16T10:38:39.192Z,2004.00
2018-03-16T10:39:39.200Z,1936.00
2018-03-16T10:40:39.237Z,2088.00
2018-03-16T10:41:39.192Z,1960.00
2018-03-16T10:42:39.197Z,1848.00
2018-03-16T10:43:39.204Z,1944.00
2018-03-16T10:44:39.204Z,1792.00
2018-03-16T10:45:39.197Z,1860.00
2018-03-16T10:46:39.203Z,1876.00
2018-03-16T10:47:39.215Z,2040.00
2018-03-16T10:48:39.209Z,1968.00
2018-03-16T10:49:39.214Z,1844.00
2018-03-16T10:50:39.230Z,2140.00
2018-03-16T10:51:39.225Z,2104.00
2018-03-16T10:52:39.258Z,1968.00
2018-03-16T10:53:39.227Z,1852.00
2018-03-16T10:54:39.223Z,2028.00
2018-03-16T10:55:39.229Z,2212.00
2018-03-16T10:56:39.250Z,2336.00
2018-03-16T10:57:39.221Z,2552.00
2018-03-16T10:58:39.227Z,2612.00
2018-03-16T10:59:39.252Z,2404.00
2018-03-16T11:00:39.237Z,2572.00
2018-03-16T11:01:39.248Z,2356.00
2018-03-16T11:02:39.265Z,2388.00
2018-03-16T11:03:40.214Z,2408.00
2018-03-16T11:04:39.242Z,2348.00
2018-03-16T11:05:39.235Z,2316.00
2018-03-16T11:06:39.270Z,2316.00
2018-03-16T11:07:39.247Z,2132.00
2018-03-16T11:08:39.271Z,2276.00
2018-03-16T11:09:39.253Z,2336.00
2018-03-16T11:10:39.278Z,2560.00
2018-03-16T11:11:39.260Z,2476.00
2018-03-16T11:12:39.255Z,2452.00
2018-03-16T11:13:39.270Z,2224.00
2018-03-16T11:14:39.272Z,2308.00
2018-03-16T11:15:39.278Z,2404.00
2018-03-16T11:16:39.268Z,2252.00
2018-03-16T11:17:39.269Z,2316.00
2018-03-16T11:18:39.275Z,2336.00
2018-03-16T11:19:39.277Z,2216.00
2018-03-16T11:20:39.286Z,2056.00
2018-03-16T11:21:39.284Z,2096.00
2018-03-16T11:22:39.290Z,2180.00
2018-03-16T11:23:40.240Z,2176.00
2018-03-16T11:24:39.331Z,2452.00
2018-03-16T11:25:39.305Z,2308.00
2018-03-16T11:26:39.307Z,2064.00
2018-03-16T11:27:39.299Z,2244.00
2018-03-16T11:28:39.295Z,2428.00
2018-03-16T11:29:39.291Z,2344.00
2018-03-16T11:30:39.306Z,2612.00
2018-03-16T11:31:39.306Z,2796.00
2018-03-16T11:32:39.303Z,2712.00
2018-03-16T11:33:39.301Z,2756.00
2018-03-16T11:34:39.305Z,2876.00
2018-03-16T11:35:39.334Z,2856.00
2018-03-16T11:36:39.323Z,2804.00
2018-03-16T11:37:39.312Z,2568.00
2018-03-16T11:38:39.312Z,2624.00
2018-03-16T11:39:39.320Z,2696.00
2018-03-16T11:40:39.376Z,2780.00
2018-03-16T11:41:39.415Z,2704.00
2018-03-16T11:42:39.368Z,2440.00
2018-03-16T11:43:39.344Z,2436.00
2018-03-16T11:44:39.340Z,2520.00
2018-03-16T11:45:39.340Z,2568.00
2018-03-16T11:46:39.338Z,2456.00
2018-03-16T11:47:39.355Z,2568.00
2018-03-16T11:48:39.347Z,2552.00
2018-03-16T11:49:39.467Z,2376.00
2018-03-16T11:50:39.503Z,2424.00
2018-03-16T11:51:39.346Z,2336.00
2018-03-16T11:52:39.342Z,2068.00
2018-03-16T11:53:39.496Z,2228.00
2018-03-16T11:54:39.351Z,2196.00
2018-03-16T11:55:39.350Z,2028.00
2018-03-16T11:56:39.360Z,2032.00
2018-03-16T11:57:39.564Z,2032.00
2018-03-16T11:58:39.356Z,2060.00
2018-03-16T11:59:39.497Z,2184.00
2018-03-16T12:00:39.363Z,2296.00
2018-03-16T12:01:39.370Z,2240.00
2018-03-16T12:02:39.375Z,2116.00
2018-03-16T12:03:39.403Z,2252.00
2018-03-16T12:04:39.377Z,2364.00
2018-03-16T12:05:39.606Z,2336.00
2018-03-16T12:06:39.375Z,2352.00
2018-03-16T12:07:39.382Z,2380.00
2018-03-16T12:08:39.383Z,2320.00
2018-03-16T12:09:39.381Z,2320.00
2018-03-16T12:10:39.392Z,2208.00
2018-03-16T12:11:39.387Z,2216.00
2018-03-16T12:12:39.389Z,2152.00
2018-03-16T12:13:39.398Z,2304.00
2018-03-16T12:14:39.386Z,2208.00
2018-03-16T12:15:39.396Z,2248.00
2018-03-16T12:16:39.424Z,2452.00
2018-03-16T12:17:39.410Z,2616.00
2018-03-16T12:18:39.415Z,2572.00
2018-03-16T12:19:39.405Z,2716.00
2018-03-16T12:20:39.446Z,2672.00
2018-03-16T12:21:39.426Z,2504.00
2018-03-16T12:22:39.413Z,2260.00
2018-03-16T12:23:39.407Z,2276.00
2018-03-16T12:24:39.420Z,2276.00
2018-03-16T12:25:39.415Z,2000.00
2018-03-16T12:26:39.420Z,2096.00
2018-03-16T12:27:39.414Z,2180.00
2018-03-16T12:28:49.696Z,2192.00
2018-03-16T12:29:39.426Z,2056.00
2018-03-16T12:30:39.424Z,1948.00
2018-03-16T12:31:39.423Z,1844.00
2018-03-16T12:32:39.423Z,1716.00
2018-03-16T12:33:39.437Z,1724.00
2018-03-16T12:34:39.435Z,1836.00
2018-03-16T12:35:39.463Z,1848.00
2018-03-16T12:36:39.445Z,1828.00
2018-03-16T12:37:39.439Z,1792.00
2018-03-16T12:38:39.435Z,1732.00
2018-03-16T12:39:39.450Z,1756.00
2018-03-16T12:40:39.448Z,1664.00
2018-03-16T12:41:39.449Z,1524.00
2018-03-16T12:42:39.444Z,1652.00
2018-03-16T12:43:39.458Z,1612.00
2018-03-16T12:44:39.457Z,1708.00